KICL/ICL METAR and TAF weather

Enter ICAO airport designator
Station Type Date Time Source
KICL METAR 2021/07/26 12:55 UTC NOAA

KICL 261255Z AUTO 00000KT 9SM CLR 17/17 A3008 RMK AO2


Station Type Date Time Source
KICL Decoded METAR 2021/07/26 12:55 UTC NOAA

Clarinda, IA, United States (KICL) 40-43N 095-02W
Jul 26, 2021 - 08:55 AM EDT / 2021.07.26 1255 UTC
Wind: Calm:0
Visibility: 9 mile(s):0
Sky conditions: clear
Temperature: 62 F (17 C)
Dew Point: 62 F (17 C)
Relative Humidity: 100%
Pressure (altimeter): 30.08 in. Hg (1018 hPa)
ob: KICL 261255Z AUTO 00000KT 9SM CLR 17/17 A3008 RMK AO2
cycle: 13

Station Type Date Time Source
KICL TAF UTC NOAA

Error!

Example: see airport list